Fort Atkinson, Wisconsin
Current Conditions -  °F | °C
As of 2:15 AM on Friday 24 Oct 2014 (Local Time) from KRYV Reporting Station
Haze Haze  
Wind Chill: 48°   Ceiling: 900
Heat Index: 49°   Visibility: 5mi
Dew Point: 49°   Wind: 5mph
Humidity: 100%   Direction: 270°W
Pressure: 30.03"   Gusts: NA
Location:  42.93°N, 88.84°W
Report Text: KRYV 240715Z AUTO 27004KT 5SM BR SCT003 OVC009 10/10 A3003 RMK AO2 T00970097
Loading
Personal Weather Stations






























Interactive Weather Map
Tropical Storm Tracking
New forecast layout! Learn more

10-Day Weather Forecast

Advertisements
Track Severe Weather on mobile